»·PEaware :: N656FP KSBD-KLAX

N656FP :: KSBD-KLAX

FLIGHT INFORMATION

Flight Status: Arrived
Operator: Privately registered:
United States
More flights under this callsign
Pilot: Corey M. (20520)
Aircraft: ECLIPSE 500
(EA50)
More flights by this aircraft type
Origin: KSBD San Bernardino Intl
United States
Destination: KLAX Los Angeles Intl
United States
More flights between these airports :: More routes between these airports
Route: PDZ PDZ270R LAX
File this flight plan on PilotEdge
Remarks: TEC route ONTP4
Altitude:
(Current/Filed)
4,000ft
Speed:
(Current/Filed)
240kts
Departed: 24-Sep-18 08:22 PM
Arrived: 24-Sep-18 08:44 PM
Distance/Time
Traveled:
59nm/0:22
Distance/Time
To Go:
Arrived

Flight Plot

Page will automatically refresh every two minutes.

Flight plan parsing failed; only flown route is shown


Map Options




Map Legend


Flown Route
Filed Route
Departure Airport
Arrival Airport
Navaid (VOR, NDB)
Fix

Horizontal Profiles

Position Reports

Time Latitude Longitude Heading Altitude Ground
Speed
24-Sep-18 19:54 34.100040 -117.243372 235 1099ft 0kts
24-Sep-18 19:55 34.100040 -117.243372 235 1099ft 0kts
24-Sep-18 19:56 34.100040 -117.243372 235 1099ft 0kts
24-Sep-18 19:57 34.100040 -117.243372 235 1099ft 0kts
24-Sep-18 19:58 34.100040 -117.243372 235 1099ft 0kts
24-Sep-18 19:59 34.100040 -117.243372 235 1099ft 0kts
24-Sep-18 20:00 34.100040 -117.243372 235 1099ft 0kts
24-Sep-18 20:01 34.100040 -117.243372 235 1099ft 0kts
24-Sep-18 20:02 34.100040 -117.243372 235 1099ft 0kts
24-Sep-18 20:03 34.100040 -117.243372 235 1099ft 0kts
24-Sep-18 20:04 34.100040 -117.243372 235 1099ft 0kts
24-Sep-18 20:05 34.100040 -117.243372 235 1099ft 0kts
24-Sep-18 20:06 34.100040 -117.243372 235 1099ft 0kts
24-Sep-18 20:07 34.100040 -117.243372 235 1099ft 0kts
24-Sep-18 20:08 34.100040 -117.243372 235 1099ft 0kts
24-Sep-18 20:09 34.100040 -117.243372 235 1099ft 0kts
24-Sep-18 20:10 34.100040 -117.243371 235 1099ft 0kts
24-Sep-18 20:11 34.100040 -117.243372 235 1099ft 0kts
24-Sep-18 20:12 34.100040 -117.243372 235 1099ft 0kts
24-Sep-18 20:13 34.100003 -117.243588 271 1098ft 0kts
24-Sep-18 20:14 34.101632 -117.244430 12 1097ft 5kts
24-Sep-18 20:15 34.102016 -117.242904 89 1100ft 17kts
24-Sep-18 20:16 34.102321 -117.241438 64 1104ft 2kts
24-Sep-18 20:17 34.098830 -117.238121 149 1109ft 21kts
24-Sep-18 20:18 34.097499 -117.233634 74 1121ft 16kts
24-Sep-18 20:19 34.099112 -117.228195 70 1135ft 5kts
24-Sep-18 20:20 34.100453 -117.223679 71 1147ft 16kts
24-Sep-18 20:21 34.101391 -117.220191 106 1157ft 5kts
24-Sep-18 20:22 34.100773 -117.219741 160 1158ft 0kts
24-Sep-18 20:23 34.100646 -117.219689 161 1158ft 8kts
24-Sep-18 20:24 34.092695 -117.241557 239 1464ft 142kts
24-Sep-18 20:25 34.065467 -117.283694 233 2399ft 169kts
24-Sep-18 20:26 34.038695 -117.326898 234 3340ft 170kts
24-Sep-18 20:27 34.013458 -117.367836 234 3960ft 183kts
24-Sep-18 20:28 33.980892 -117.420145 234 3965ft 252kts
24-Sep-18 20:29 33.937437 -117.489598 234 3963ft 248kts
24-Sep-18 20:30 33.915146 -117.556071 288 3967ft 225kts
24-Sep-18 20:31 33.934252 -117.623406 288 3963ft 218kts
24-Sep-18 20:32 33.949730 -117.683618 286 3964ft 217kts
24-Sep-18 20:33 33.964942 -117.747231 284 3965ft 217kts
24-Sep-18 20:34 33.964182 -117.813646 261 3967ft 214kts
24-Sep-18 20:35 33.957448 -117.878625 261 3966ft 213kts
24-Sep-18 20:36 33.950688 -117.943745 261 3964ft 213kts
24-Sep-18 20:37 33.947950 -118.008534 281 3965ft 225kts
24-Sep-18 20:38 33.959062 -118.066795 281 3960ft 195kts
24-Sep-18 20:39 33.964459 -118.117842 261 3962ft 170kts
24-Sep-18 20:40 33.959660 -118.165127 261 3674ft 162kts
24-Sep-18 20:41 33.955016 -118.211204 261 2943ft 164kts
24-Sep-18 20:42 33.950296 -118.257586 261 2181ft 164kts
24-Sep-18 20:43 33.945369 -118.305650 261 1390ft 163kts
24-Sep-18 20:44 33.940583 -118.352215 261 632ft 123kts
24-Sep-18 20:45 33.937624 -118.380920 258 146ft 83kts
24-Sep-18 20:46 33.935646 -118.390964 174 104ft 0kts
24-Sep-18 20:47 33.935230 -118.391591 260 104ft 10kts
24-Sep-18 20:48 33.934758 -118.395933 260 109ft 18kts
24-Sep-18 20:49 33.932856 -118.398545 254 113ft 3kts
24-Sep-18 20:50 33.933064 -118.399503 317 115ft 11kts
24-Sep-18 20:51 33.933294 -118.399595 71 115ft 0kts
24-Sep-18 20:52 33.933294 -118.399595 71 115ft 0kts
24-Sep-18 20:53 33.933294 -118.399595 71 115ft 0kts

Navigation Log

Ident Type
Flight plan parsing failed, navigation log unavailable